Time;durP1;ratioP1;P1;durP2;ratioP2;P2;SDS_P1;SDS_P2;PMS_P1;PMS_P2;Temp;Humidity;BMP_temperature;BMP_pressure;BME280_temperature;BME280_humidity;BME280_pressure;Samples;Min_cycle;Max_cycle;Signal;HPM_P1;HPM_P2
2021/12/27 00:00:08;;;;;;;28.00;18.30;;;;;;;;;;5075626;28;20199;-70
2021/12/27 00:02:35;;;;;;;29.23;16.50;;;;;;;;;;5074854;28;20285;-70
2021/12/27 00:05:03;;;;;;;24.13;15.02;;;;;;;;;;5074976;28;20601;-70
2021/12/27 00:07:31;;;;;;;23.40;15.38;;;;;;;;;;5074971;28;20277;-70
2021/12/27 00:10:00;;;;;;;23.10;14.77;;;;;;;;;;5075340;28;20302;-70
2021/12/27 00:12:27;;;;;;;25.45;17.73;;;;;;;;;;5074566;28;20195;-70
2021/12/27 00:14:54;;;;;;;25.20;16.48;;;;;;;;;;5075120;28;20289;-70
2021/12/27 00:17:21;;;;;;;27.88;16.52;;;;;;;;;;5074498;28;20669;-70
2021/12/27 00:19:48;;;;;;;23.25;15.57;;;;;;;;;;5074764;28;20609;-70
2021/12/27 00:22:16;;;;;;;27.80;16.13;;;;;;;;;;5074542;28;20286;-70
2021/12/27 00:24:47;;;;;;;27.55;16.38;;;;;;;;;;5074596;28;20283;-70
2021/12/27 00:27:14;;;;;;;25.90;14.80;;;;;;;;;;5074968;28;20567;-70
2021/12/27 00:29:41;;;;;;;26.17;15.15;;;;;;;;;;5074093;28;20232;-70
2021/12/27 00:32:09;;;;;;;28.85;16.95;;;;;;;;;;5074470;28;20654;-70
2021/12/27 00:34:37;;;;;;;20.90;14.38;;;;;;;;;;5074538;28;20199;-70
2021/12/27 00:37:04;;;;;;;25.45;16.17;;;;;;;;;;5074090;28;20598;-70
2021/12/27 00:39:32;;;;;;;26.25;15.02;;;;;;;;;;5074428;28;20202;-70
2021/12/27 00:42:01;;;;;;;24.30;15.85;;;;;;;;;;5074314;28;20621;-70
2021/12/27 00:44:28;;;;;;;24.38;14.98;;;;;;;;;;5074933;28;20204;-70
2021/12/27 00:46:55;;;;;;;25.77;15.60;;;;;;;;;;5074220;28;20238;-70
2021/12/27 00:49:22;;;;;;;28.27;16.10;;;;;;;;;;5074093;28;20242;-70
2021/12/27 00:51:50;;;;;;;28.13;17.15;;;;;;;;;;5074078;28;20301;-70
2021/12/27 00:54:17;;;;;;;31.40;15.93;;;;;;;;;;5073664;28;20246;-70
2021/12/27 00:56:45;;;;;;;25.90;16.10;;;;;;;;;;5073729;28;20292;-70
2021/12/27 00:59:13;;;;;;;28.42;16.45;;;;;;;;;;5073983;28;20287;-70
2021/12/27 01:01:41;;;;;;;31.05;16.10;;;;;;;;;;5073813;28;20231;-70
2021/12/27 01:04:09;;;;;;;29.02;17.08;;;;;;;;;;5073879;28;20236;-70
2021/12/27 01:06:36;;;;;;;25.13;16.50;;;;;;;;;;5073518;28;20194;-70
2021/12/27 01:09:04;;;;;;;24.95;15.90;;;;;;;;;;5074167;28;20307;-70
2021/12/27 01:11:40;;;;;;;26.60;14.95;;;;;;;;;;5073465;28;20201;-70
2021/12/27 01:14:12;;;;;;;28.23;16.75;;;;;;;;;;5074050;28;20221;-71
2021/12/27 01:16:41;;;;;;;25.55;17.58;;;;;;;;;;5073749;28;20226;-70
2021/12/27 01:19:09;;;;;;;24.60;15.93;;;;;;;;;;5073946;28;20290;-69
2021/12/27 01:21:36;;;;;;;23.80;16.27;;;;;;;;;;5073353;28;20224;-69
2021/12/27 01:24:04;;;;;;;31.70;16.10;;;;;;;;;;5073658;28;20221;-70
2021/12/27 01:26:31;;;;;;;26.27;14.77;;;;;;;;;;5073622;28;20289;-69
2021/12/27 01:29:00;;;;;;;25.33;15.70;;;;;;;;;;5073834;28;20251;-69
2021/12/27 01:31:27;;;;;;;26.95;15.68;;;;;;;;;;5073588;28;20281;-70
2021/12/27 01:33:56;;;;;;;24.63;15.15;;;;;;;;;;5073381;28;20283;-70
2021/12/27 01:36:23;;;;;;;24.17;15.45;;;;;;;;;;5074298;28;20286;-69
2021/12/27 01:38:50;;;;;;;27.65;17.65;;;;;;;;;;5073431;28;20277;-69
2021/12/27 01:41:18;;;;;;;25.63;15.80;;;;;;;;;;5073167;28;20651;-70
2021/12/27 01:43:45;;;;;;;24.98;15.15;;;;;;;;;;5073007;28;20745;-69
2021/12/27 01:46:15;;;;;;;26.65;17.85;;;;;;;;;;5073339;28;20289;-69
2021/12/27 01:48:44;;;;;;;32.65;16.98;;;;;;;;;;5073465;28;20193;-69
2021/12/27 01:51:13;;;;;;;32.45;17.63;;;;;;;;;;5073731;28;20198;-69
2021/12/27 01:53:42;;;;;;;32.58;18.02;;;;;;;;;;5073285;28;20287;-69
2021/12/27 01:56:10;;;;;;;24.58;16.45;;;;;;;;;;5074115;28;20202;-69
2021/12/27 01:58:38;;;;;;;28.23;16.70;;;;;;;;;;5073279;28;20601;-69
2021/12/27 02:01:06;;;;;;;29.95;16.00;;;;;;;;;;5073316;28;20286;-69
2021/12/27 02:03:33;;;;;;;22.90;14.40;;;;;;;;;;5073569;28;20623;-69
2021/12/27 02:06:01;;;;;;;27.15;15.23;;;;;;;;;;5073153;28;20287;-69
2021/12/27 02:08:30;;;;;;;26.40;16.05;;;;;;;;;;5073149;28;20194;-69
2021/12/27 02:10:57;;;;;;;25.00;16.20;;;;;;;;;;5073071;28;20240;-69
2021/12/27 02:13:25;;;;;;;23.65;15.82;;;;;;;;;;5072690;28;20285;-69
2021/12/27 02:15:52;;;;;;;28.05;16.00;;;;;;;;;;5072945;28;20235;-69
2021/12/27 02:18:19;;;;;;;28.17;15.90;;;;;;;;;;5073395;28;20537;-69
2021/12/27 02:20:48;;;;;;;29.63;17.23;;;;;;;;;;5072694;28;20315;-69
2021/12/27 02:23:16;;;;;;;25.88;16.90;;;;;;;;;;5072981;28;20251;-69
2021/12/27 02:25:44;;;;;;;25.70;15.95;;;;;;;;;;5073002;28;20191;-69
2021/12/27 02:28:12;;;;;;;26.77;16.38;;;;;;;;;;5072587;28;20290;-70
2021/12/27 02:30:40;;;;;;;25.42;15.80;;;;;;;;;;5072898;28;20630;-69
2021/12/27 02:33:08;;;;;;;27.80;17.15;;;;;;;;;;5073059;28;20197;-69
2021/12/27 02:35:37;;;;;;;23.25;14.65;;;;;;;;;;5072588;28;20240;-69
2021/12/27 02:38:07;;;;;;;28.98;16.98;;;;;;;;;;5072902;28;20267;-69
2021/12/27 02:40:35;;;;;;;25.95;16.80;;;;;;;;;;5072556;28;20289;-69
2021/12/27 02:43:05;;;;;;;25.25;15.32;;;;;;;;;;5072859;28;20207;-69
2021/12/27 02:45:34;;;;;;;23.58;16.05;;;;;;;;;;5072830;28;20289;-69
2021/12/27 02:48:01;;;;;;;25.20;16.50;;;;;;;;;;5073115;28;20298;-69
2021/12/27 02:50:29;;;;;;;26.63;16.38;;;;;;;;;;5072966;28;20250;-69
2021/12/27 02:52:56;;;;;;;23.95;16.75;;;;;;;;;;5074093;28;20563;-69
2021/12/27 02:55:25;;;;;;;26.30;16.88;;;;;;;;;;5076052;28;20227;-69
2021/12/27 02:57:53;;;;;;;26.73;15.38;;;;;;;;;;5076702;28;20293;-69
2021/12/27 03:00:21;;;;;;;23.67;15.82;;;;;;;;;;5076350;28;20243;-69
2021/12/27 03:02:49;;;;;;;26.48;15.90;;;;;;;;;;5076466;28;20290;-69
2021/12/27 03:05:18;;;;;;;33.38;18.17;;;;;;;;;;5076222;28;20282;-69
2021/12/27 03:07:46;;;;;;;26.08;15.20;;;;;;;;;;5075859;28;20285;-69
2021/12/27 03:10:13;;;;;;;26.75;16.73;;;;;;;;;;5076356;28;20306;-69
2021/12/27 03:12:43;;;;;;;24.13;14.80;;;;;;;;;;5076179;28;20240;-69
2021/12/27 03:15:12;;;;;;;29.70;16.73;;;;;;;;;;5076176;28;20229;-69
2021/12/27 03:17:39;;;;;;;31.10;18.05;;;;;;;;;;5075661;28;20318;-68
2021/12/27 03:20:07;;;;;;;25.23;14.80;;;;;;;;;;5075887;28;20285;-69
2021/12/27 03:22:37;;;;;;;25.77;15.45;;;;;;;;;;5076368;28;20538;-68
2021/12/27 03:25:05;;;;;;;28.42;17.13;;;;;;;;;;5076448;28;20195;-68
2021/12/27 03:27:32;;;;;;;28.75;17.83;;;;;;;;;;5075756;28;20650;-68
2021/12/27 03:30:01;;;;;;;30.27;15.73;;;;;;;;;;5075744;28;20240;-68
2021/12/27 03:32:30;;;;;;;26.85;15.43;;;;;;;;;;5075752;28;20348;-68
2021/12/27 03:35:07;;;;;;;31.45;17.08;;;;;;;;;;5075375;28;20199;-68
2021/12/27 03:37:35;;;;;;;30.30;16.45;;;;;;;;;;5075943;28;20541;-68
2021/12/27 03:40:02;;;;;;;26.55;16.75;;;;;;;;;;5075584;28;20293;-68
2021/12/27 03:42:29;;;;;;;26.75;15.88;;;;;;;;;;5075472;28;20233;-69
2021/12/27 03:44:56;;;;;;;26.40;16.08;;;;;;;;;;5075299;28;20646;-68
2021/12/27 03:47:25;;;;;;;27.58;15.75;;;;;;;;;;5075116;28;20287;-68
2021/12/27 03:49:52;;;;;;;23.10;14.18;;;;;;;;;;5075312;28;20219;-68
2021/12/27 03:52:20;;;;;;;28.63;16.73;;;;;;;;;;5075068;28;20285;-68
2021/12/27 03:54:47;;;;;;;23.38;15.73;;;;;;;;;;5075301;28;20283;-68
2021/12/27 03:57:15;;;;;;;26.80;15.13;;;;;;;;;;5074946;28;20226;-68
2021/12/27 03:59:53;;;;;;;31.33;16.33;;;;;;;;;;5075171;28;20244;-68
2021/12/27 04:02:21;;;;;;;30.33;15.82;;;;;;;;;;5075528;28;20189;-68
2021/12/27 04:04:49;;;;;;;28.35;17.42;;;;;;;;;;5074052;28;20613;-68
2021/12/27 04:07:18;;;;;;;28.05;16.40;;;;;;;;;;5075630;28;20222;-68
2021/12/27 04:09:45;;;;;;;25.30;15.88;;;;;;;;;;5075576;28;20230;-68
2021/12/27 04:12:12;;;;;;;22.35;14.65;;;;;;;;;;5075005;28;20293;-68
2021/12/27 04:14:40;;;;;;;25.63;14.32;;;;;;;;;;5075065;28;20228;-68
2021/12/27 04:17:07;;;;;;;24.30;15.30;;;;;;;;;;5074450;28;20264;-68
2021/12/27 04:19:34;;;;;;;25.50;14.90;;;;;;;;;;5074742;28;20290;-68
2021/12/27 04:22:03;;;;;;;24.17;15.00;;;;;;;;;;5074453;28;20286;-68
2021/12/27 04:24:30;;;;;;;28.85;15.77;;;;;;;;;;5075060;28;20278;-68
2021/12/27 04:26:57;;;;;;;26.33;15.80;;;;;;;;;;5074392;28;20285;-68
2021/12/27 04:29:24;;;;;;;28.45;16.38;;;;;;;;;;5074740;28;20203;-68
2021/12/27 04:31:52;;;;;;;24.83;15.40;;;;;;;;;;5074935;28;20218;-69
2021/12/27 04:34:19;;;;;;;28.00;14.95;;;;;;;;;;5074194;28;20191;-68
2021/12/27 04:36:46;;;;;;;23.45;15.45;;;;;;;;;;5074480;28;20279;-69
2021/12/27 04:39:14;;;;;;;24.75;14.95;;;;;;;;;;5074042;28;20286;-68
2021/12/27 04:41:42;;;;;;;27.27;16.42;;;;;;;;;;5074327;28;20298;-68
2021/12/27 04:44:09;;;;;;;24.33;15.40;;;;;;;;;;5074272;28;20201;-67
2021/12/27 04:46:36;;;;;;;28.20;17.15;;;;;;;;;;5074118;28;20194;-68
2021/12/27 04:49:04;;;;;;;26.65;15.27;;;;;;;;;;5073918;28;20204;-68
2021/12/27 04:51:31;;;;;;;28.13;17.02;;;;;;;;;;5074132;28;20309;-68
2021/12/27 04:53:58;;;;;;;24.35;14.90;;;;;;;;;;5074150;28;20302;-68
2021/12/27 04:56:27;;;;;;;23.48;16.15;;;;;;;;;;5074114;28;20614;-68
2021/12/27 04:58:54;;;;;;;23.42;15.65;;;;;;;;;;5074007;28;20543;-68
2021/12/27 05:01:22;;;;;;;23.45;14.70;;;;;;;;;;5073672;28;20293;-68
2021/12/27 05:03:50;;;;;;;23.55;16.00;;;;;;;;;;5073586;28;20266;-68
2021/12/27 05:06:17;;;;;;;25.08;16.17;;;;;;;;;;5073893;28;20279;-68
2021/12/27 05:08:44;;;;;;;21.58;16.33;;;;;;;;;;5073879;28;20205;-68
2021/12/27 05:11:11;;;;;;;26.00;16.17;;;;;;;;;;5073340;28;20305;-68
2021/12/27 05:13:40;;;;;;;24.42;15.13;;;;;;;;;;5073801;28;20286;-68
2021/12/27 05:16:07;;;;;;;24.10;15.77;;;;;;;;;;5072837;28;20721;-68
2021/12/27 05:18:35;;;;;;;24.30;14.30;;;;;;;;;;5073238;28;20198;-68
2021/12/27 05:21:02;;;;;;;30.38;18.60;;;;;;;;;;5073649;28;20249;-68
2021/12/27 05:23:30;;;;;;;26.00;15.65;;;;;;;;;;5073319;28;20197;-69
2021/12/27 05:25:58;;;;;;;24.58;14.45;;;;;;;;;;5073321;28;20198;-68
2021/12/27 05:28:25;;;;;;;23.63;14.93;;;;;;;;;;5073604;28;20614;-69
2021/12/27 05:30:54;;;;;;;24.23;15.48;;;;;;;;;;5073119;28;20772;-68
2021/12/27 05:33:21;;;;;;;26.42;16.05;;;;;;;;;;5073517;28;20229;-68
2021/12/27 05:35:48;;;;;;;21.77;14.80;;;;;;;;;;5078239;28;20709;-68
2021/12/27 05:38:16;;;;;;;24.50;14.90;;;;;;;;;;5093199;28;20229;-68
2021/12/27 05:40:43;;;;;;;25.05;16.02;;;;;;;;;;5093609;28;20727;-68
2021/12/27 05:43:10;;;;;;;25.73;15.77;;;;;;;;;;5093129;28;20290;-68
2021/12/27 05:45:38;;;;;;;23.38;15.00;;;;;;;;;;5093623;28;20284;-68
2021/12/27 05:48:08;;;;;;;21.25;13.27;;;;;;;;;;5093546;28;20281;-68
2021/12/27 05:50:35;;;;;;;29.67;16.65;;;;;;;;;;5093698;28;20652;-68
2021/12/27 05:53:03;;;;;;;24.38;14.00;;;;;;;;;;5094096;28;20194;-68
2021/12/27 05:55:31;;;;;;;23.40;14.50;;;;;;;;;;5093417;28;20284;-68
2021/12/27 05:57:58;;;;;;;24.92;15.05;;;;;;;;;;5093503;28;20288;-69
2021/12/27 06:00:26;;;;;;;21.63;15.52;;;;;;;;;;5093409;28;20632;-69
2021/12/27 06:02:54;;;;;;;20.75;14.00;;;;;;;;;;5093183;28;20291;-68
2021/12/27 06:05:23;;;;;;;21.63;15.48;;;;;;;;;;5093470;28;20626;-67
2021/12/27 06:07:51;;;;;;;27.63;15.20;;;;;;;;;;5093347;28;20619;-68
2021/12/27 06:10:19;;;;;;;22.60;14.32;;;;;;;;;;5094063;28;20193;-68
2021/12/27 06:12:46;;;;;;;19.00;13.23;;;;;;;;;;5093333;28;20265;-68
2021/12/27 06:15:14;;;;;;;26.85;15.20;;;;;;;;;;5092995;28;20315;-68
2021/12/27 06:17:42;;;;;;;24.80;14.20;;;;;;;;;;5093424;28;20222;-68
2021/12/27 06:20:11;;;;;;;18.33;12.70;;;;;;;;;;5092932;28;20226;-68
2021/12/27 06:22:40;;;;;;;21.90;13.65;;;;;;;;;;5092930;28;20197;-68
2021/12/27 06:25:08;;;;;;;19.98;14.25;;;;;;;;;;5093194;28;20292;-68
2021/12/27 06:27:35;;;;;;;26.20;13.45;;;;;;;;;;5094039;28;20189;-68
2021/12/27 06:30:03;;;;;;;22.67;14.55;;;;;;;;;;5097172;28;20278;-68
2021/12/27 06:32:31;;;;;;;20.50;13.10;;;;;;;;;;5096712;28;20217;-68
2021/12/27 06:34:58;;;;;;;21.63;13.75;;;;;;;;;;5096691;28;20190;-68
2021/12/27 06:37:25;;;;;;;22.77;13.45;;;;;;;;;;5097254;28;20219;-67
2021/12/27 06:39:54;;;;;;;27.25;15.75;;;;;;;;;;5096644;28;20201;-68
2021/12/27 06:42:21;;;;;;;26.15;14.20;;;;;;;;;;5096991;28;20237;-67
2021/12/27 06:44:48;;;;;;;29.42;14.10;;;;;;;;;;5097100;28;20226;-67
2021/12/27 06:47:15;;;;;;;28.30;15.20;;;;;;;;;;5096828;28;20295;-67
2021/12/27 06:49:43;;;;;;;22.92;13.73;;;;;;;;;;5097472;28;20191;-68
2021/12/27 06:52:11;;;;;;;21.20;14.52;;;;;;;;;;5096930;28;20636;-68
2021/12/27 06:54:39;;;;;;;22.80;13.95;;;;;;;;;;5096630;28;20619;-67
2021/12/27 06:57:08;;;;;;;22.77;13.63;;;;;;;;;;5096635;28;20713;-67
2021/12/27 06:59:35;;;;;;;23.98;13.35;;;;;;;;;;5096300;28;20286;-67
2021/12/27 07:02:03;;;;;;;21.33;12.45;;;;;;;;;;5096902;28;20227;-67
2021/12/27 07:04:31;;;;;;;20.60;12.95;;;;;;;;;;5097066;28;20190;-67
2021/12/27 07:06:59;;;;;;;36.20;19.80;;;;;;;;;;5096322;28;20202;-67
2021/12/27 07:09:26;;;;;;;28.02;16.33;;;;;;;;;;5096077;28;20674;-68
2021/12/27 07:11:53;;;;;;;25.15;15.40;;;;;;;;;;5096243;28;20577;-68
2021/12/27 07:14:22;;;;;;;23.23;13.70;;;;;;;;;;5096262;28;20359;-67
2021/12/27 07:16:50;;;;;;;23.98;13.90;;;;;;;;;;5095646;28;20266;-67
2021/12/27 07:19:17;;;;;;;25.25;14.68;;;;;;;;;;5095778;28;20638;-67
2021/12/27 07:21:44;;;;;;;22.58;14.73;;;;;;;;;;5095830;28;20205;-68
2021/12/27 07:24:11;;;;;;;20.52;14.02;;;;;;;;;;5095842;28;20282;-67
2021/12/27 07:26:38;;;;;;;26.17;13.95;;;;;;;;;;5095787;28;20290;-68
2021/12/27 07:29:06;;;;;;;24.55;13.27;;;;;;;;;;5096066;28;20216;-68
2021/12/27 07:31:34;;;;;;;22.25;13.98;;;;;;;;;;5095578;28;20222;-68
2021/12/27 07:34:01;;;;;;;21.42;13.20;;;;;;;;;;5095632;28;20233;-67
2021/12/27 07:36:29;;;;;;;26.08;13.70;;;;;;;;;;5095877;28;20194;-68
2021/12/27 07:38:57;;;;;;;23.30;14.63;;;;;;;;;;5095692;28;20203;-68
2021/12/27 07:41:24;;;;;;;24.38;13.35;;;;;;;;;;5096007;28;20244;-68
2021/12/27 07:43:51;;;;;;;19.50;13.35;;;;;;;;;;5095938;28;20198;-68
2021/12/27 07:46:19;;;;;;;18.98;12.02;;;;;;;;;;5095430;28;20290;-68
2021/12/27 07:48:47;;;;;;;19.85;12.73;;;;;;;;;;5095446;28;20284;-68
2021/12/27 07:51:14;;;;;;;20.02;12.07;;;;;;;;;;5095510;28;20214;-68
2021/12/27 07:53:42;;;;;;;26.13;14.57;;;;;;;;;;5095619;28;20290;-68
2021/12/27 07:56:09;;;;;;;22.80;14.10;;;;;;;;;;5095618;28;20223;-68
2021/12/27 07:58:37;;;;;;;23.13;12.93;;;;;;;;;;5095150;28;20233;-69
2021/12/27 08:01:04;;;;;;;27.95;14.85;;;;;;;;;;5095392;28;20297;-68
2021/12/27 08:03:32;;;;;;;19.95;12.10;;;;;;;;;;5095786;28;20278;-68
2021/12/27 08:06:00;;;;;;;21.00;12.30;;;;;;;;;;5095832;28;20194;-69
2021/12/27 08:08:28;;;;;;;16.25;12.02;;;;;;;;;;5094940;28;20273;-69
2021/12/27 08:10:55;;;;;;;23.98;12.68;;;;;;;;;;5095155;28;20237;-68
2021/12/27 08:13:22;;;;;;;20.50;13.63;;;;;;;;;;5094754;28;20203;-68
2021/12/27 08:15:50;;;;;;;18.05;13.20;;;;;;;;;;5094914;28;20284;-69
2021/12/27 08:18:17;;;;;;;19.38;12.25;;;;;;;;;;5095080;28;20266;-69
2021/12/27 08:20:44;;;;;;;19.77;13.40;;;;;;;;;;5095005;28;20284;-69
2021/12/27 08:23:13;;;;;;;18.08;12.45;;;;;;;;;;5094895;28;20285;-69
2021/12/27 08:25:40;;;;;;;20.95;12.93;;;;;;;;;;5094570;28;20285;-68
2021/12/27 08:28:08;;;;;;;24.15;13.90;;;;;;;;;;5095097;28;20302;-68
2021/12/27 08:30:35;;;;;;;17.10;11.73;;;;;;;;;;5094836;28;20202;-67
2021/12/27 08:33:02;;;;;;;19.02;11.73;;;;;;;;;;5094680;28;20619;-68
2021/12/27 08:35:30;;;;;;;22.80;12.80;;;;;;;;;;5094561;28;20198;-68
2021/12/27 08:37:57;;;;;;;19.10;13.10;;;;;;;;;;5094207;28;20189;-69
2021/12/27 08:40:26;;;;;;;18.50;11.60;;;;;;;;;;5094526;28;20203;-69
2021/12/27 08:42:54;;;;;;;19.10;11.93;;;;;;;;;;5094141;28;20288;-68
2021/12/27 08:45:21;;;;;;;20.08;12.98;;;;;;;;;;5095189;28;20225;-68
2021/12/27 08:47:49;;;;;;;18.98;12.48;;;;;;;;;;5094370;28;20290;-68
2021/12/27 08:50:17;;;;;;;17.45;10.40;;;;;;;;;;5093609;28;20280;-68
2021/12/27 08:52:44;;;;;;;22.90;13.40;;;;;;;;;;5094016;28;20310;-68
2021/12/27 08:55:12;;;;;;;21.52;12.90;;;;;;;;;;5094069;28;20233;-69
2021/12/27 08:57:41;;;;;;;23.55;12.40;;;;;;;;;;5094018;28;20656;-67
2021/12/27 09:00:10;;;;;;;22.17;11.60;;;;;;;;;;5094276;28;20260;-68
2021/12/27 09:02:37;;;;;;;15.68;11.52;;;;;;;;;;5094151;28;20256;-68
2021/12/27 09:05:06;;;;;;;20.08;11.85;;;;;;;;;;5094232;28;20223;-68
2021/12/27 09:07:33;;;;;;;19.08;12.70;;;;;;;;;;5094136;28;20201;-69
2021/12/27 09:10:00;;;;;;;18.13;13.23;;;;;;;;;;5094027;28;20282;-68
2021/12/27 09:12:28;;;;;;;14.93;12.13;;;;;;;;;;5094051;28;20303;-68
2021/12/27 09:14:56;;;;;;;20.02;13.90;;;;;;;;;;5094087;28;20248;-69
2021/12/27 09:17:23;;;;;;;19.17;14.30;;;;;;;;;;5094004;28;20270;-68
2021/12/27 09:19:51;;;;;;;15.02;11.82;;;;;;;;;;5094022;28;20194;-68
2021/12/27 09:22:18;;;;;;;21.05;12.60;;;;;;;;;;5093527;28;20745;-68
2021/12/27 09:24:46;;;;;;;18.27;11.63;;;;;;;;;;5093417;28;20197;-67
2021/12/27 09:27:14;;;;;;;17.35;11.20;;;;;;;;;;5093498;28;20236;-66
2021/12/27 09:29:43;;;;;;;15.02;10.30;;;;;;;;;;5093802;28;20250;-67
2021/12/27 09:32:11;;;;;;;17.85;10.55;;;;;;;;;;5093681;28;20629;-67
2021/12/27 09:34:39;;;;;;;13.82;10.05;;;;;;;;;;5093838;28;20284;-67
2021/12/27 09:37:07;;;;;;;16.38;10.40;;;;;;;;;;5093653;28;20281;-67
2021/12/27 09:39:34;;;;;;;18.75;10.95;;;;;;;;;;5093819;28;20201;-68
2021/12/27 09:42:01;;;;;;;13.43;10.43;;;;;;;;;;5093528;28;20203;-67
2021/12/27 09:44:29;;;;;;;15.95;11.48;;;;;;;;;;5093999;28;20285;-67
2021/12/27 09:46:56;;;;;;;16.75;10.85;;;;;;;;;;5093498;28;20199;-67
2021/12/27 09:49:29;;;;;;;13.13;9.82;;;;;;;;;;5093516;28;20285;-67
2021/12/27 09:51:57;;;;;;;15.98;10.52;;;;;;;;;;5093496;28;20294;-68
2021/12/27 09:54:24;;;;;;;14.57;9.98;;;;;;;;;;5093486;28;20271;-67
2021/12/27 09:56:51;;;;;;;14.63;9.10;;;;;;;;;;5093428;28;20230;-67
2021/12/27 09:59:20;;;;;;;16.27;11.05;;;;;;;;;;5093426;28;20286;-68
2021/12/27 10:01:47;;;;;;;15.23;11.25;;;;;;;;;;5093457;28;20199;-67
2021/12/27 10:04:15;;;;;;;13.40;9.82;;;;;;;;;;5097354;28;20692;-67
2021/12/27 10:06:43;;;;;;;13.10;10.13;;;;;;;;;;5097349;28;20650;-68
2021/12/27 10:09:10;;;;;;;15.60;10.93;;;;;;;;;;5097147;28;20286;-67
2021/12/27 10:11:38;;;;;;;13.73;9.82;;;;;;;;;;5096888;28;20735;-67
2021/12/27 10:14:07;;;;;;;14.50;10.07;;;;;;;;;;5097023;28;20230;-67
2021/12/27 10:16:35;;;;;;;12.85;9.63;;;;;;;;;;5097061;28;20329;-67
2021/12/27 10:19:04;;;;;;;12.05;8.95;;;;;;;;;;5097090;28;20205;-67
2021/12/27 10:21:31;;;;;;;12.20;9.10;;;;;;;;;;5097442;28;20625;-67
2021/12/27 10:24:04;;;;;;;13.40;9.23;;;;;;;;;;5097259;28;20255;-67
2021/12/27 10:26:31;;;;;;;13.20;9.35;;;;;;;;;;5097790;28;20230;-68
2021/12/27 10:29:12;;;;;;;12.57;8.82;;;;;;;;;;5097459;28;20283;-65
2021/12/27 10:31:52;;;;;;;13.50;9.40;;;;;;;;;;5097408;28;20265;-65
2021/12/27 10:34:19;;;;;;;15.25;11.30;;;;;;;;;;5096967;28;20282;-67
2021/12/27 10:37:00;;;;;;;14.60;10.50;;;;;;;;;;5096363;28;20523;-68
2021/12/27 10:39:31;;;;;;;10.40;9.13;;;;;;;;;;5096508;28;20587;-67
2021/12/27 10:42:08;;;;;;;12.63;8.88;;;;;;;;;;5097146;28;20270;-68
2021/12/27 10:44:36;;;;;;;10.65;9.48;;;;;;;;;;5096991;28;20217;-68
2021/12/27 10:47:04;;;;;;;12.10;8.70;;;;;;;;;;5096457;28;20195;-67
2021/12/27 10:49:45;;;;;;;13.25;9.90;;;;;;;;;;5096444;28;20281;-68
2021/12/27 10:52:13;;;;;;;11.18;9.32;;;;;;;;;;5096299;28;20234;-67
2021/12/27 10:54:41;;;;;;;10.00;7.97;;;;;;;;;;5096320;28;20222;-68
2021/12/27 10:57:09;;;;;;;12.50;9.05;;;;;;;;;;5096547;28;20281;-68
2021/12/27 10:59:36;;;;;;;12.43;8.23;;;;;;;;;;5096399;28;20191;-68
2021/12/27 11:02:10;;;;;;;9.23;7.40;;;;;;;;;;5096473;28;20281;-68
2021/12/27 11:04:38;;;;;;;11.15;8.50;;;;;;;;;;5096548;28;20204;-68
2021/12/27 11:07:05;;;;;;;10.27;7.93;;;;;;;;;;5096136;28;20282;-67
2021/12/27 11:09:33;;;;;;;13.77;10.25;;;;;;;;;;5096142;28;20656;-68
2021/12/27 11:12:01;;;;;;;17.88;10.45;;;;;;;;;;5095840;28;20232;-68
2021/12/27 11:14:29;;;;;;;12.68;10.48;;;;;;;;;;5095098;28;20222;-68
2021/12/27 11:16:56;;;;;;;10.63;8.43;;;;;;;;;;5095203;28;20262;-68
2021/12/27 11:19:24;;;;;;;10.98;8.93;;;;;;;;;;5095459;28;20684;-68
2021/12/27 11:21:51;;;;;;;10.02;8.57;;;;;;;;;;5095416;28;20234;-68
2021/12/27 11:24:19;;;;;;;11.02;9.00;;;;;;;;;;5095829;28;20227;-69
2021/12/27 11:26:47;;;;;;;14.48;8.18;;;;;;;;;;5095745;28;20190;-68
2021/12/27 11:29:17;;;;;;;10.40;8.98;;;;;;;;;;5095404;28;20234;-69
2021/12/27 11:31:45;;;;;;;12.80;9.15;;;;;;;;;;5095466;28;20284;-68
2021/12/27 11:34:13;;;;;;;14.07;9.38;;;;;;;;;;5095766;28;20203;-68
2021/12/27 11:36:41;;;;;;;15.85;10.80;;;;;;;;;;5096309;28;20684;-68
2021/12/27 11:39:22;;;;;;;13.27;9.95;;;;;;;;;;5095546;28;20237;-68
2021/12/27 11:41:58;;;;;;;14.90;9.80;;;;;;;;;;5095462;28;20192;-68
2021/12/27 11:44:35;;;;;;;10.32;8.60;;;;;;;;;;5095742;28;20558;-69
2021/12/27 11:47:02;;;;;;;10.88;8.93;;;;;;;;;;5096078;28;20702;-69
2021/12/27 11:49:34;;;;;;;11.88;9.55;;;;;;;;;;5095175;28;20283;-68
2021/12/27 11:52:14;;;;;;;12.55;9.27;;;;;;;;;;5095156;28;20287;-68
2021/12/27 11:54:49;;;;;;;9.10;7.78;;;;;;;;;;5095924;28;20211;-69
2021/12/27 11:57:31;;;;;;;10.35;8.10;;;;;;;;;;5095947;28;20190;-69
2021/12/27 11:59:59;;;;;;;8.80;7.80;;;;;;;;;;5095130;28;20274;-69
2021/12/27 12:02:29;;;;;;;12.65;8.80;;;;;;;;;;5094941;28;20291;-69
2021/12/27 12:04:57;;;;;;;11.05;9.70;;;;;;;;;;5094983;28;20659;-68
2021/12/27 12:07:43;;;;;;;9.43;8.52;;;;;;;;;;5095180;28;20204;-69
2021/12/27 12:10:14;;;;;;;9.57;8.43;;;;;;;;;;5094874;28;20282;-68
2021/12/27 12:12:42;;;;;;;8.60;7.53;;;;;;;;;;5094726;28;20243;-68
2021/12/27 12:15:11;;;;;;;11.98;7.85;;;;;;;;;;5094436;28;20231;-68
2021/12/27 12:17:39;;;;;;;14.45;8.68;;;;;;;;;;5095079;28;20229;-68
2021/12/27 12:20:07;;;;;;;12.82;8.45;;;;;;;;;;5094875;28;20288;-69
2021/12/27 12:22:37;;;;;;;17.98;9.15;;;;;;;;;;5094970;28;20234;-68
2021/12/27 12:25:15;;;;;;;13.35;8.88;;;;;;;;;;5094715;28;20198;-68
2021/12/27 12:27:53;;;;;;;17.05;9.10;;;;;;;;;;5095051;28;20278;-69
2021/12/27 12:30:22;;;;;;;10.90;7.22;;;;;;;;;;5094850;28;20201;-69
2021/12/27 12:32:59;;;;;;;8.38;7.47;;;;;;;;;;5094799;28;20250;-68
2021/12/27 12:35:37;;;;;;;9.25;7.25;;;;;;;;;;5095292;28;20198;-68
2021/12/27 12:38:15;;;;;;;8.00;7.30;;;;;;;;;;5094579;28;20196;-69
2021/12/27 12:40:43;;;;;;;8.57;7.00;;;;;;;;;;5094358;28;20196;-68
2021/12/27 12:43:10;;;;;;;9.82;7.22;;;;;;;;;;5094150;28;20629;-68
2021/12/27 12:45:39;;;;;;;10.18;8.02;;;;;;;;;;5094399;28;20600;-68
2021/12/27 12:48:07;;;;;;;8.60;7.70;;;;;;;;;;5094866;28;20232;-68
2021/12/27 12:50:35;;;;;;;10.40;9.30;;;;;;;;;;5094419;28;20227;-69
2021/12/27 12:53:05;;;;;;;8.93;7.03;;;;;;;;;;5094113;28;20219;-69
2021/12/27 12:55:34;;;;;;;8.25;7.30;;;;;;;;;;5094487;28;20631;-68
2021/12/27 12:58:02;;;;;;;11.43;8.50;;;;;;;;;;5094220;28;20237;-69
2021/12/27 13:00:30;;;;;;;9.38;6.90;;;;;;;;;;5094436;28;20283;-69
2021/12/27 13:03:09;;;;;;;8.95;7.90;;;;;;;;;;5093945;28;20243;-69
2021/12/27 13:05:36;;;;;;;9.65;7.85;;;;;;;;;;5094935;28;20601;-68
2021/12/27 13:08:04;;;;;;;8.82;7.90;;;;;;;;;;5093804;28;20232;-70
2021/12/27 13:10:32;;;;;;;10.07;7.28;;;;;;;;;;5094131;28;20629;-69
2021/12/27 13:13:01;;;;;;;10.27;7.45;;;;;;;;;;5093498;28;20262;-69
2021/12/27 13:15:29;;;;;;;8.98;8.05;;;;;;;;;;5094077;28;20751;-69
2021/12/27 13:18:01;;;;;;;11.98;8.45;;;;;;;;;;5094129;28;20260;-68
2021/12/27 13:20:31;;;;;;;12.20;8.88;;;;;;;;;;5093793;28;20229;-69
2021/12/27 13:22:59;;;;;;;10.20;7.65;;;;;;;;;;5094100;28;20227;-69
2021/12/27 13:25:31;;;;;;;12.68;9.57;;;;;;;;;;5093810;28;20323;-69
2021/12/27 13:28:12;;;;;;;8.32;7.53;;;;;;;;;;5093733;28;20201;-69
2021/12/27 13:30:49;;;;;;;9.68;8.68;;;;;;;;;;5093730;28;20597;-68
2021/12/27 13:33:17;;;;;;;8.82;7.95;;;;;;;;;;5093308;28;20211;-69
2021/12/27 13:35:47;;;;;;;10.35;8.20;;;;;;;;;;5093331;28;20732;-69
2021/12/27 13:38:22;;;;;;;10.50;9.35;;;;;;;;;;5093813;28;20184;-70
2021/12/27 13:40:51;;;;;;;9.60;7.65;;;;;;;;;;5093289;28;20717;-69
2021/12/27 13:43:18;;;;;;;10.48;8.82;;;;;;;;;;5093620;28;20287;-69
2021/12/27 13:45:46;;;;;;;9.15;8.23;;;;;;;;;;5093351;28;20279;-68
2021/12/27 13:48:13;;;;;;;20.05;10.75;;;;;;;;;;5092971;28;20667;-69
2021/12/27 13:50:42;;;;;;;18.02;10.60;;;;;;;;;;5093410;28;20228;-69
2021/12/27 13:53:14;;;;;;;9.45;7.28;;;;;;;;;;5093407;28;20239;-68
2021/12/27 13:55:42;;;;;;;8.27;7.53;;;;;;;;;;5093143;28;20238;-68
2021/12/27 13:58:13;;;;;;;8.05;6.68;;;;;;;;;;5093803;28;20298;-68
2021/12/27 14:00:40;;;;;;;11.40;8.50;;;;;;;;;;5093344;28;20235;-69
2021/12/27 14:03:24;;;;;;;9.25;7.88;;;;;;;;;;5093564;28;20555;-68
2021/12/27 14:05:53;;;;;;;8.27;7.45;;;;;;;;;;5093652;28;20217;-69
2021/12/27 14:08:23;;;;;;;7.03;6.20;;;;;;;;;;5092977;28;20205;-69
2021/12/27 14:11:00;;;;;;;7.95;7.15;;;;;;;;;;5093084;28;20200;-69
2021/12/27 14:13:44;;;;;;;8.57;7.43;;;;;;;;;;5092736;28;20315;-69
2021/12/27 14:16:35;;;;;;;11.45;7.85;;;;;;;;;;5092992;28;20280;-69
2021/12/27 14:19:04;;;;;;;14.15;9.85;;;;;;;;;;5072980;28;20270;-69
2021/12/27 14:21:32;;;;;;;14.55;9.57;;;;;;;;;;5093886;28;20201;-68
2021/12/27 14:24:05;;;;;;;13.75;10.25;;;;;;;;;;5093177;28;20622;-69
2021/12/27 14:26:32;;;;;;;12.23;9.88;;;;;;;;;;5092759;28;20196;-69
2021/12/27 14:29:15;;;;;;;17.60;10.55;;;;;;;;;;5093678;28;20281;-69